Scottsville, Texas
Current Conditions -  °F | °C
As of 7:55 PM on Friday 24 Oct 2014 (Local Time) from KASL Reporting Station
Clear Clear  
Wind Chill: 66°   Ceiling: Unl
Heat Index: 66°   Visibility: 10mi
Dew Point: 62°   Wind: 0mph
Humidity: 86%   Direction: NA
Pressure: 30.14"   Gusts: NA
Location:  32.54°N, 94.24°W
Report Text: KASL 250055Z AUTO 00000KT 10SM CLR 19/16 A3014 RMK AO1 T01880164
Loading
Personal Weather Stations






























Interactive Weather Map
Tropical Storm Tracking
New forecast layout! Learn more

10-Day Weather Forecast

Advertisements
Track Severe Weather on mobile